createdAt,value
2023-04-16T00:00:43.696Z,102300.97
2023-04-16T00:03:29.197Z,102301.06
2023-04-16T00:06:14.224Z,102300.25
2023-04-16T00:08:59.254Z,102284.00
2023-04-16T00:11:44.592Z,102293.50
2023-04-16T00:14:30.026Z,102293.66
2023-04-16T00:17:15.522Z,102285.03
2023-04-16T00:20:00.520Z,102287.72
2023-04-16T00:22:46.050Z,102296.50
2023-04-16T00:25:31.347Z,102288.78
2023-04-16T00:28:16.472Z,102285.50
2023-04-16T00:31:01.763Z,102288.16
2023-04-16T00:33:46.587Z,102291.69
2023-04-16T00:36:31.692Z,102298.59
2023-04-16T00:39:16.804Z,102284.06
2023-04-16T00:42:01.871Z,102277.38
2023-04-16T00:44:47.140Z,102295.28
2023-04-16T00:47:32.334Z,102278.13
2023-04-16T00:50:17.738Z,102284.91
2023-04-16T00:53:03.922Z,102285.03
2023-04-16T00:55:49.097Z,102286.00
2023-04-16T00:58:35.577Z,102286.94
2023-04-16T01:01:20.606Z,102283.44
2023-04-16T01:04:07.128Z,102292.16
2023-04-16T01:06:52.582Z,102290.44
2023-04-16T01:09:37.661Z,102292.28
2023-04-16T01:12:22.709Z,102286.44
2023-04-16T01:15:08.612Z,102287.34
2023-04-16T01:17:53.645Z,102289.22
2023-04-16T01:20:38.642Z,102268.66
2023-04-16T01:23:23.769Z,102286.75
2023-04-16T01:26:09.017Z,102281.78
2023-04-16T01:28:54.343Z,102298.03
2023-04-16T01:31:39.458Z,102298.06
2023-04-16T01:34:24.641Z,102292.03
2023-04-16T01:37:09.599Z,102291.25
2023-04-16T01:39:54.660Z,102285.34
2023-04-16T01:42:39.934Z,102289.75
2023-04-16T01:45:25.425Z,102288.09
2023-04-16T01:48:10.685Z,102283.81
2023-04-16T01:50:55.759Z,102280.47
2023-04-16T01:53:41.021Z,102284.00
2023-04-16T01:56:26.448Z,102277.97
2023-04-16T01:59:12.288Z,102272.81
2023-04-16T02:01:59.626Z,102262.59
2023-04-16T02:04:45.932Z,102272.84
2023-04-16T02:07:31.760Z,102263.50
2023-04-16T02:10:17.060Z,102277.22
2023-04-16T02:13:01.831Z,102274.63
2023-04-16T02:15:47.744Z,102248.19
2023-04-16T02:18:32.812Z,102278.97
2023-04-16T02:21:17.806Z,102277.31
2023-04-16T02:24:03.016Z,102278.22
2023-04-16T02:26:48.277Z,102279.06
2023-04-16T02:29:33.352Z,102277.31
2023-04-16T02:32:18.408Z,102270.41
2023-04-16T02:35:04.103Z,102273.94
2023-04-16T02:37:49.144Z,102272.19
2023-04-16T02:40:34.182Z,102280.84
2023-04-16T02:43:19.469Z,102275.63
2023-04-16T02:46:04.529Z,102270.50
2023-04-16T02:48:49.958Z,102267.16
2023-04-16T02:51:35.175Z,102267.16
2023-04-16T02:54:20.413Z,102267.16
2023-04-16T02:57:06.143Z,102279.25
2023-04-16T02:59:51.034Z,102266.38
2023-04-16T03:02:36.249Z,102274.00
2023-04-16T03:05:21.572Z,102279.16
2023-04-16T03:08:07.004Z,102274.88
2023-04-16T03:10:52.006Z,102259.31
2023-04-16T03:13:37.090Z,102251.69
2023-04-16T03:16:22.425Z,102268.00
2023-04-16T03:19:07.846Z,102263.59
2023-04-16T03:21:53.406Z,102270.41
2023-04-16T03:24:38.567Z,102267.81
2023-04-16T03:27:23.575Z,102266.13
2023-04-16T03:30:11.178Z,102270.50
2023-04-16T03:32:56.291Z,102272.34
2023-04-16T03:35:41.272Z,102270.66
2023-04-16T03:38:26.617Z,102261.03
2023-04-16T03:41:11.763Z,102260.16
2023-04-16T03:43:56.949Z,102260.19
2023-04-16T03:46:41.857Z,102253.22
2023-04-16T03:49:26.962Z,102261.88
2023-04-16T03:52:12.508Z,102243.00
2023-04-16T03:54:57.707Z,102238.72
2023-04-16T03:57:42.675Z,102234.41
2023-04-16T04:00:27.645Z,102259.31
2023-04-16T04:03:13.125Z,102268.84
2023-04-16T04:05:58.586Z,102259.31
2023-04-16T04:08:43.709Z,102255.03
2023-04-16T04:11:28.640Z,102245.75
2023-04-16T04:14:13.640Z,102255.09
2023-04-16T04:16:58.661Z,102250.91
2023-04-16T04:19:54.245Z,102258.69
2023-04-16T04:22:46.312Z,102256.28
2023-04-16T04:25:31.510Z,102260.72
2023-04-16T04:28:16.726Z,102255.50
2023-04-16T04:31:02.289Z,102248.47
2023-04-16T04:33:47.572Z,102246.69
2023-04-16T04:36:32.507Z,102238.06
2023-04-16T04:39:17.674Z,102243.91
2023-04-16T04:42:03.244Z,102253.41
2023-04-16T04:44:48.537Z,102254.22
2023-04-16T04:47:33.744Z,102251.50
2023-04-16T04:50:19.016Z,102257.50
2023-04-16T04:53:09.814Z,102255.66
2023-04-16T04:55:57.513Z,102245.41
2023-04-16T04:58:51.372Z,102252.09
2023-04-16T05:01:36.427Z,102251.44
2023-04-16T05:04:21.333Z,102274.56
2023-04-16T05:07:07.186Z,102248.75
2023-04-16T05:09:52.183Z,102275.38
2023-04-16T05:12:37.181Z,102273.63
2023-04-16T05:15:22.571Z,102274.56
2023-04-16T05:18:07.760Z,102273.63
2023-04-16T05:20:52.766Z,102273.53
2023-04-16T05:23:37.761Z,102279.56
2023-04-16T05:26:23.453Z,102281.31
2023-04-16T05:29:08.653Z,102283.06
2023-04-16T05:31:54.046Z,102284.84
2023-04-16T05:34:39.318Z,102282.16
2023-04-16T05:37:24.319Z,102279.41
2023-04-16T05:40:09.735Z,102284.56
2023-04-16T05:42:54.476Z,102264.78
2023-04-16T05:45:40.806Z,102279.19
2023-04-16T05:48:25.795Z,102260.25
2023-04-16T05:51:10.701Z,102268.66
2023-04-16T05:53:55.746Z,102279.84
2023-04-16T05:56:41.009Z,102281.47
2023-04-16T05:59:26.518Z,102283.13
2023-04-16T06:02:11.750Z,102286.44
2023-04-16T06:04:57.289Z,102279.44
2023-04-16T06:07:42.578Z,102285.56
2023-04-16T06:10:28.089Z,102282.97
2023-04-16T06:13:13.704Z,102285.41
2023-04-16T06:15:58.519Z,102281.03
2023-04-16T06:18:43.534Z,102291.34
2023-04-16T06:21:28.891Z,102286.78
2023-04-16T06:24:13.958Z,102290.09
2023-04-16T06:26:59.041Z,102291.78
2023-04-16T06:29:44.518Z,102300.03
2023-04-16T06:32:30.700Z,102298.25
2023-04-16T06:35:15.981Z,102299.72
2023-04-16T06:38:00.906Z,102288.47
2023-04-16T06:40:46.104Z,102299.50
2023-04-16T06:43:33.415Z,102309.81
2023-04-16T06:46:18.399Z,102314.00
2023-04-16T06:49:03.236Z,102312.94
2023-04-16T06:51:48.347Z,102309.38
2023-04-16T06:54:34.146Z,102318.66
2023-04-16T06:57:19.061Z,102295.22
2023-04-16T07:00:05.115Z,102313.13
2023-04-16T07:02:50.560Z,102325.22
2023-04-16T07:05:35.693Z,102320.56
2023-04-16T07:08:20.740Z,102321.94
2023-04-16T07:11:05.963Z,102312.84
2023-04-16T07:13:51.258Z,102321.22
2023-04-16T07:16:37.667Z,102326.09
2023-04-16T07:19:23.061Z,102306.75
2023-04-16T07:22:08.196Z,102314.06
2023-04-16T07:24:53.429Z,102322.34
2023-04-16T07:27:38.357Z,102327.22
2023-04-16T07:30:23.305Z,102322.66
2023-04-16T07:33:08.480Z,102324.09
2023-04-16T07:35:53.694Z,102327.03
2023-04-16T07:38:38.904Z,102324.84
2023-04-16T07:41:23.944Z,102339.22
2023-04-16T07:44:09.511Z,102313.72
2023-04-16T07:46:54.436Z,102329.41
2023-04-16T07:49:39.837Z,102330.13
2023-04-16T07:52:25.143Z,102339.38
2023-04-16T07:55:10.353Z,102323.81
2023-04-16T07:57:55.218Z,102334.22
2023-04-16T08:00:40.308Z,102327.22
2023-04-16T08:03:25.927Z,102309.41
2023-04-16T08:06:11.507Z,102347.69
2023-04-16T08:08:56.530Z,102346.34
2023-04-16T08:11:41.711Z,102349.63
2023-04-16T08:14:26.888Z,102349.13
2023-04-16T08:17:18.855Z,102346.78
2023-04-16T08:20:04.869Z,102350.88
2023-04-16T08:22:50.224Z,102350.19
2023-04-16T08:25:35.461Z,102346.06
2023-04-16T08:28:20.820Z,102346.72
2023-04-16T08:31:06.146Z,102341.19
2023-04-16T08:33:51.399Z,102349.56
2023-04-16T08:36:36.148Z,102349.00
2023-04-16T08:39:21.673Z,102350.16
2023-04-16T08:42:21.353Z,102350.69
2023-04-16T08:45:16.033Z,102338.97
2023-04-16T08:48:01.951Z,102349.63
2023-04-16T08:50:52.292Z,102347.84
2023-04-16T08:54:05.411Z,102348.22
2023-04-16T08:56:51.414Z,102356.50
2023-04-16T08:59:37.216Z,102353.66
2023-04-16T09:02:22.605Z,102346.47
2023-04-16T09:05:10.419Z,102364.28
2023-04-16T09:07:56.057Z,102365.75
2023-04-16T09:10:41.112Z,102340.00
2023-04-16T09:13:26.891Z,102361.50
2023-04-16T09:16:12.945Z,102363.66
2023-04-16T09:18:57.998Z,102365.00
2023-04-16T09:21:48.189Z,102348.75
2023-04-16T09:24:34.273Z,102361.13
2023-04-16T09:27:20.079Z,102375.88
2023-04-16T09:30:23.552Z,102358.25
2023-04-16T09:33:22.001Z,102368.75
2023-04-16T09:36:07.670Z,102376.16
2023-04-16T09:38:54.912Z,102373.13
2023-04-16T09:41:41.230Z,102374.34
2023-04-16T09:44:38.444Z,102377.91
2023-04-16T09:47:25.965Z,102362.13
2023-04-16T09:50:18.931Z,102371.19
2023-04-16T09:53:04.543Z,102369.28
2023-04-16T09:55:49.761Z,102374.66
2023-04-16T09:58:38.463Z,102379.81
2023-04-16T10:01:23.934Z,102375.38
2023-04-16T10:04:09.236Z,102376.66
2023-04-16T10:07:05.441Z,102380.69
2023-04-16T10:09:52.478Z,102373.75
2023-04-16T10:12:37.698Z,102374.59
2023-04-16T10:15:23.292Z,102372.94
2023-04-16T10:18:08.386Z,102372.97
2023-04-16T10:20:53.815Z,102375.72
2023-04-16T10:23:39.993Z,102369.41
2023-04-16T10:26:25.348Z,102368.66
2023-04-16T10:29:12.935Z,102368.25
2023-04-16T10:31:58.887Z,102364.69
2023-04-16T10:34:44.372Z,102345.44
2023-04-16T10:37:33.091Z,102363.75
2023-04-16T10:40:26.344Z,102363.06
2023-04-16T10:43:17.661Z,102359.66
2023-04-16T10:46:21.897Z,102362.97
2023-04-16T10:49:27.112Z,102362.09
2023-04-16T10:52:13.839Z,102353.59
2023-04-16T10:55:00.223Z,102352.75
2023-04-16T10:57:49.812Z,102352.88
2023-04-16T11:00:49.702Z,102345.81
2023-04-16T11:03:34.806Z,102352.16
2023-04-16T11:06:28.100Z,102358.13
2023-04-16T11:09:42.126Z,102353.03
2023-04-16T11:12:34.861Z,102351.16
2023-04-16T11:15:20.256Z,102346.28
2023-04-16T11:18:06.971Z,102353.81
2023-04-16T11:20:52.642Z,102350.94
2023-04-16T11:23:51.883Z,102356.25
2023-04-16T11:26:36.870Z,102335.28
2023-04-16T11:29:21.869Z,102354.22
2023-04-16T11:32:07.124Z,102351.41
2023-04-16T11:34:52.251Z,102353.63
2023-04-16T11:37:38.730Z,102352.78
2023-04-16T11:40:24.260Z,102342.09
2023-04-16T11:43:16.640Z,102343.78
2023-04-16T11:46:20.609Z,102350.94
2023-04-16T11:49:12.421Z,102342.94
2023-04-16T11:51:58.639Z,102338.66
2023-04-16T11:54:50.339Z,102354.56
2023-04-16T11:57:35.536Z,102347.34
2023-04-16T12:00:22.525Z,102351.34
2023-04-16T12:03:10.865Z,102340.94
2023-04-16T12:06:08.047Z,102343.41
2023-04-16T12:08:53.364Z,102346.75
2023-04-16T12:11:42.334Z,102346.47
2023-04-16T12:14:28.395Z,102338.91
2023-04-16T12:17:23.542Z,102344.00
2023-04-16T12:20:09.735Z,102341.22
2023-04-16T12:22:57.028Z,102342.50
2023-04-16T12:25:42.946Z,102341.88
2023-04-16T12:28:33.141Z,102323.44
2023-04-16T12:31:20.413Z,102335.72
2023-04-16T12:34:05.834Z,102341.56
2023-04-16T12:37:08.010Z,102337.63
2023-04-16T12:39:54.336Z,102349.31
2023-04-16T12:42:39.502Z,102343.13
2023-04-16T12:45:25.151Z,102342.28
2023-04-16T12:48:10.403Z,102350.97
2023-04-16T12:50:55.711Z,102338.25
2023-04-16T12:53:40.953Z,102342.28
2023-04-16T12:56:26.233Z,102334.84
2023-04-16T12:59:11.567Z,102345.25
2023-04-16T13:01:57.043Z,102347.03
2023-04-16T13:04:42.472Z,102346.38
2023-04-16T13:07:28.230Z,102355.16
2023-04-16T13:10:13.819Z,102335.78
2023-04-16T13:12:58.627Z,102326.72
2023-04-16T13:15:43.633Z,102341.50
2023-04-16T13:18:28.690Z,102339.69
2023-04-16T13:21:13.588Z,102334.88
2023-04-16T13:23:59.316Z,102315.47
2023-04-16T13:26:44.933Z,102327.34
2023-04-16T13:29:30.076Z,102332.91
2023-04-16T13:32:15.456Z,102322.53
2023-04-16T13:35:00.199Z,102320.38
2023-04-16T13:37:45.326Z,102319.28
2023-04-16T13:40:30.843Z,102322.28
2023-04-16T13:43:16.602Z,102300.94
2023-04-16T13:46:01.962Z,102305.41
2023-04-16T13:48:47.295Z,102315.06
2023-04-16T13:51:32.814Z,102304.56
2023-04-16T13:54:17.780Z,102307.00
2023-04-16T13:57:02.958Z,102303.66
2023-04-16T13:59:48.339Z,102299.16
2023-04-16T14:02:33.422Z,102303.41
2023-04-16T14:05:19.481Z,102316.84
2023-04-16T14:08:04.352Z,102312.75
2023-04-16T14:10:49.724Z,102305.22
2023-04-16T14:13:34.839Z,102298.22
2023-04-16T14:16:20.043Z,102307.22
2023-04-16T14:19:05.423Z,102311.28
2023-04-16T14:21:50.492Z,102306.59
2023-04-16T14:24:35.834Z,102305.56
2023-04-16T14:27:21.084Z,102302.63
2023-04-16T14:30:07.102Z,102295.63
2023-04-16T14:32:52.247Z,102299.63
2023-04-16T14:35:37.408Z,102282.22
2023-04-16T14:38:22.904Z,102296.31
2023-04-16T14:41:08.112Z,102290.19
2023-04-16T14:43:52.949Z,102291.38
2023-04-16T14:46:38.517Z,102288.25
2023-04-16T14:49:24.096Z,102278.41
2023-04-16T14:52:09.201Z,102290.53
2023-04-16T14:54:57.909Z,102286.06
2023-04-16T14:57:42.870Z,102293.41
2023-04-16T15:00:28.460Z,102289.75
2023-04-16T15:03:13.876Z,102274.25
2023-04-16T15:05:59.407Z,102288.88
2023-04-16T15:08:44.658Z,102274.25
2023-04-16T15:11:30.125Z,102275.34
2023-04-16T15:14:15.295Z,102265.06
2023-04-16T15:17:00.811Z,102274.47
2023-04-16T15:19:46.477Z,102272.03
2023-04-16T15:22:31.674Z,102268.44
2023-04-16T15:25:16.811Z,102268.91
2023-04-16T15:28:02.637Z,102272.59
2023-04-16T15:30:47.915Z,102257.75
2023-04-16T15:33:32.922Z,102262.59
2023-04-16T15:36:18.054Z,102264.06
2023-04-16T15:39:03.506Z,102237.88
2023-04-16T15:42:00.783Z,102236.78
2023-04-16T15:44:46.894Z,102246.72
2023-04-16T15:47:32.024Z,102238.66
2023-04-16T15:50:17.912Z,102249.38
2023-04-16T15:53:03.354Z,102249.63
2023-04-16T15:55:52.373Z,102237.56
2023-04-16T15:58:37.667Z,102243.59
2023-04-16T16:01:22.864Z,102252.41
2023-04-16T16:04:08.348Z,102247.31
2023-04-16T16:06:54.024Z,102248.66
2023-04-16T16:09:38.918Z,102247.66
2023-04-16T16:12:23.967Z,102244.84
2023-04-16T16:15:10.917Z,102249.75
2023-04-16T16:17:57.802Z,102258.63
2023-04-16T16:20:43.601Z,102251.38
2023-04-16T16:23:28.773Z,102249.38
2023-04-16T16:26:13.786Z,102248.97
2023-04-16T16:28:58.552Z,102243.44
2023-04-16T16:31:43.628Z,102241.34
2023-04-16T16:34:28.649Z,102244.31
2023-04-16T16:37:13.567Z,102244.38
2023-04-16T16:39:58.625Z,102242.69
2023-04-16T16:42:43.613Z,102239.81
2023-04-16T16:45:30.524Z,102228.09
2023-04-16T16:48:15.494Z,102239.47
2023-04-16T16:51:01.061Z,102241.88
2023-04-16T16:53:46.381Z,102243.41
2023-04-16T16:56:31.829Z,102239.25
2023-04-16T16:59:17.041Z,102232.91
2023-04-16T17:02:02.334Z,102244.22
2023-04-16T17:04:47.308Z,102229.09
2023-04-16T17:07:32.927Z,102236.22
2023-04-16T17:10:21.011Z,102242.69
2023-04-16T17:13:05.979Z,102242.47
2023-04-16T17:15:51.281Z,102224.88
2023-04-16T17:18:36.665Z,102238.78
2023-04-16T17:21:21.669Z,102214.88
2023-04-16T17:24:06.744Z,102224.81
2023-04-16T17:26:51.922Z,102224.81
2023-04-16T17:29:36.849Z,102231.50
2023-04-16T17:32:21.931Z,102236.47
2023-04-16T17:35:09.312Z,102234.56
2023-04-16T17:37:54.375Z,102232.97
2023-04-16T17:40:39.728Z,102230.41
2023-04-16T17:43:24.699Z,102230.84
2023-04-16T17:46:11.642Z,102233.69
2023-04-16T17:48:56.753Z,102233.91
2023-04-16T17:51:44.287Z,102231.78
2023-04-16T17:54:29.580Z,102220.91
2023-04-16T17:57:14.978Z,102230.66
2023-04-16T18:00:00.023Z,102219.28
2023-04-16T18:02:45.387Z,102239.50
2023-04-16T18:05:30.855Z,102243.06
2023-04-16T18:08:16.290Z,102247.72
2023-04-16T18:11:06.295Z,102252.75
2023-04-16T18:13:53.650Z,102234.97
2023-04-16T18:16:38.837Z,102250.81
2023-04-16T18:19:24.044Z,102244.69
2023-04-16T18:22:09.345Z,102254.81
2023-04-16T18:24:54.924Z,102249.59
2023-04-16T18:27:39.901Z,102227.88
2023-04-16T18:30:26.735Z,102258.13
2023-04-16T18:33:38.863Z,102255.13
2023-04-16T18:36:17.272Z,102266.25
2023-04-16T18:39:02.802Z,102266.38
2023-04-16T18:41:48.037Z,102265.69
2023-04-16T18:44:33.379Z,102239.81
2023-04-16T18:47:18.895Z,102269.47
2023-04-16T18:50:04.358Z,102270.34
2023-04-16T18:52:49.484Z,102278.34
2023-04-16T18:55:34.416Z,102262.56
2023-04-16T18:58:19.436Z,102270.75
2023-04-16T19:01:04.859Z,102287.72
2023-04-16T19:03:50.504Z,102283.75
2023-04-16T19:06:44.946Z,102266.31
2023-04-16T19:09:29.838Z,102274.13
2023-04-16T19:12:14.739Z,102284.31
2023-04-16T19:14:59.946Z,102278.47
2023-04-16T19:17:45.060Z,102285.03
2023-04-16T19:20:29.974Z,102290.31
2023-04-16T19:23:15.323Z,102280.47
2023-04-16T19:26:01.435Z,102276.94
2023-04-16T19:28:46.545Z,102287.94
2023-04-16T19:31:31.725Z,102281.69
2023-04-16T19:34:16.988Z,102278.22
2023-04-16T19:37:01.881Z,102298.00
2023-04-16T19:39:46.826Z,102306.69
2023-04-16T19:42:32.227Z,102301.50
2023-04-16T19:45:18.334Z,102302.53
2023-04-16T19:48:03.781Z,102304.19
2023-04-16T19:50:49.197Z,102315.88
2023-04-16T19:53:34.699Z,102313.69
2023-04-16T19:56:20.133Z,102320.09
2023-04-16T19:59:04.902Z,102311.50
2023-04-16T20:01:50.013Z,102316.94
2023-04-16T20:04:35.664Z,102322.78
2023-04-16T20:07:21.280Z,102321.13
2023-04-16T20:10:06.874Z,102315.25
2023-04-16T20:12:51.876Z,102311.25
2023-04-16T20:15:37.381Z,102323.22
2023-04-16T20:18:22.377Z,102313.31
2023-04-16T20:21:08.083Z,102324.44
2023-04-16T20:23:53.306Z,102329.88
2023-04-16T20:26:38.414Z,102329.88
2023-04-16T20:29:23.741Z,102329.03
2023-04-16T20:32:08.983Z,102333.97
2023-04-16T20:34:55.193Z,102329.97
2023-04-16T20:37:42.118Z,102330.91
2023-04-16T20:40:30.285Z,102322.59
2023-04-16T20:43:18.702Z,102340.59
2023-04-16T20:46:04.961Z,102336.53
2023-04-16T20:48:51.202Z,102338.81
2023-04-16T20:51:38.393Z,102323.41
2023-04-16T20:54:23.698Z,102329.50
2023-04-16T20:57:08.718Z,102315.50
2023-04-16T20:59:53.945Z,102316.50
2023-04-16T21:02:39.379Z,102327.63
2023-04-16T21:05:26.501Z,102319.13
2023-04-16T21:08:11.824Z,102311.91
2023-04-16T21:10:57.060Z,102320.06
2023-04-16T21:13:42.413Z,102320.38
2023-04-16T21:16:27.391Z,102318.31
2023-04-16T21:19:12.757Z,102315.56
2023-04-16T21:21:58.356Z,102324.38
2023-04-16T21:24:43.586Z,102324.53
2023-04-16T21:27:28.646Z,102328.25
2023-04-16T21:30:14.120Z,102326.78
2023-04-16T21:32:59.352Z,102324.31
2023-04-16T21:35:44.419Z,102322.53
2023-04-16T21:38:29.631Z,102321.00
2023-04-16T21:41:14.702Z,102335.06
2023-04-16T21:43:59.835Z,102324.94
2023-04-16T21:46:45.192Z,102331.97
2023-04-16T21:49:30.391Z,102322.78
2023-04-16T21:52:18.313Z,102337.00
2023-04-16T21:55:03.934Z,102331.06
2023-04-16T21:57:48.794Z,102328.59
2023-04-16T22:00:35.045Z,102323.94
2023-04-16T22:03:26.273Z,102342.88
2023-04-16T22:06:14.114Z,102333.69
2023-04-16T22:08:59.027Z,102327.03
2023-04-16T22:11:46.513Z,102345.09
2023-04-16T22:14:31.937Z,102339.97
2023-04-16T22:17:17.162Z,102344.59
2023-04-16T22:20:06.878Z,102331.91
2023-04-16T22:22:57.579Z,102325.41
2023-04-16T22:25:42.647Z,102339.84
2023-04-16T22:28:28.072Z,102332.03
2023-04-16T22:31:13.389Z,102331.56
2023-04-16T22:33:58.451Z,102329.03
2023-04-16T22:36:43.634Z,102318.41
2023-04-16T22:39:29.808Z,102333.66
2023-04-16T22:42:15.092Z,102331.22
2023-04-16T22:45:00.074Z,102330.59
2023-04-16T22:47:45.098Z,102327.28
2023-04-16T22:50:31.225Z,102332.25
2023-04-16T22:53:16.450Z,102334.88
2023-04-16T22:56:01.799Z,102329.47
2023-04-16T22:58:46.696Z,102332.38
2023-04-16T23:01:32.983Z,102330.69
2023-04-16T23:04:18.696Z,102330.13
2023-04-16T23:07:03.842Z,102325.56
2023-04-16T23:09:48.831Z,102334.53
2023-04-16T23:12:33.849Z,102327.34
2023-04-16T23:15:19.110Z,102335.50
2023-04-16T23:18:04.370Z,102329.72
2023-04-16T23:20:53.626Z,102329.56
2023-04-16T23:23:38.621Z,102325.31
2023-04-16T23:26:23.695Z,102333.03
2023-04-16T23:29:09.028Z,102333.19
2023-04-16T23:31:54.629Z,102330.59
2023-04-16T23:34:39.657Z,102327.19
2023-04-16T23:37:24.614Z,102319.66
2023-04-16T23:40:10.303Z,102316.16
2023-04-16T23:42:55.348Z,102329.81
2023-04-16T23:45:40.303Z,102317.28
2023-04-16T23:48:25.414Z,102329.13
2023-04-16T23:51:10.621Z,102337.84
2023-04-16T23:53:55.745Z,102337.97
2023-04-16T23:56:41.422Z,102336.34
2023-04-16T23:59:26.389Z,102335.50
